Terminal Aerodrome Forecast
Issued by NWS

Home | Current Version | Previous Version | Text Only | Print | Product List | Glossary On
Versions: 1 2 3 4 5 6 7 8 9 10 11 12 13 14 15 16 17 18 19 20 21 22 23 24 25
000
FTUS44 KHGX 291720
TAFCXO
TAF
KCXO 291720Z 2918/3018 19005KT P6SM VCSH SCT045 BKN250
     FM292300 17006KT P6SM SCT050
     FM300200 VRB03KT P6SM SCT250
     FM301100 VRB03KT P6SM FEW015
     FM301400 23005KT P6SM SCT025 SCT045=

USA.gov is the U.S. government's official web portal to all federal, state and local government web resources and services.